createdAt,value
2022-12-23T00:01:22.822Z,99286.25
2022-12-23T00:03:50.943Z,99273.59
2022-12-23T00:06:18.926Z,99275.84
2022-12-23T00:08:46.912Z,99276.47
2022-12-23T00:11:16.354Z,99275.78
2022-12-23T00:14:02.228Z,99279.16
2022-12-23T00:16:29.751Z,99279.41
2022-12-23T00:18:57.015Z,99277.25
2022-12-23T00:21:24.441Z,99273.00
2022-12-23T00:23:51.970Z,99270.41
2022-12-23T00:26:23.550Z,99263.16
2022-12-23T00:28:50.966Z,99255.34
2022-12-23T00:31:18.916Z,99255.63
2022-12-23T00:33:47.874Z,99248.38
2022-12-23T00:36:17.284Z,99248.34
2022-12-23T00:39:03.493Z,99251.25
2022-12-23T00:41:49.388Z,99247.09
2022-12-23T00:44:16.878Z,99241.84
2022-12-23T00:46:44.110Z,99240.56
2022-12-23T00:49:30.601Z,99242.53
2022-12-23T00:51:58.202Z,99241.56
2022-12-23T00:54:25.384Z,99245.69
2022-12-23T00:56:52.609Z,99250.34
2022-12-23T00:59:20.279Z,99250.56
2022-12-23T01:02:06.112Z,99250.41
2022-12-23T01:04:52.484Z,99253.44
2022-12-23T01:07:20.051Z,99249.91
2022-12-23T01:09:47.589Z,99239.03
2022-12-23T01:12:14.794Z,99240.75
2022-12-23T01:14:42.043Z,99241.19
2022-12-23T01:17:09.608Z,99248.75
2022-12-23T01:19:36.920Z,99237.59
2022-12-23T01:22:04.139Z,99223.75
2022-12-23T01:24:32.015Z,99223.09
2022-12-23T01:26:59.704Z,99216.34
2022-12-23T01:29:26.872Z,99216.28
2022-12-23T01:31:54.417Z,99223.66
2022-12-23T01:34:21.693Z,99225.88
2022-12-23T01:36:48.872Z,99219.97
2022-12-23T01:39:16.312Z,99210.44
2022-12-23T01:42:02.091Z,99210.50
2022-12-23T01:44:48.310Z,99205.72
2022-12-23T01:47:34.183Z,99202.56
2022-12-23T01:50:04.341Z,99198.69
2022-12-23T01:52:32.074Z,99187.34
2022-12-23T01:54:59.324Z,99192.72
2022-12-23T01:57:26.782Z,99193.09
2022-12-23T02:00:12.680Z,99183.88
2022-12-23T02:02:58.674Z,99182.69
2022-12-23T02:05:26.236Z,99172.38
2022-12-23T02:08:12.028Z,99177.87
2022-12-23T02:11:02.951Z,99174.38
2022-12-23T02:13:32.932Z,99171.28
2022-12-23T02:16:18.538Z,99160.06
2022-12-23T02:18:48.655Z,99174.50
2022-12-23T02:21:25.107Z,99168.63
2022-12-23T02:23:57.240Z,99162.19
2022-12-23T02:26:24.711Z,99162.66
2022-12-23T02:29:01.275Z,99165.31
2022-12-23T02:31:47.633Z,99160.69
2022-12-23T02:34:27.812Z,99159.88
2022-12-23T02:36:55.330Z,99164.19
2022-12-23T02:39:51.845Z,99174.59
2022-12-23T02:42:32.589Z,99177.22
2022-12-23T02:44:59.772Z,99178.69
2022-12-23T02:47:34.871Z,99180.78
2022-12-23T02:50:04.008Z,99178.69
2022-12-23T02:52:31.930Z,99181.41
2022-12-23T02:55:01.019Z,99188.41
2022-12-23T02:57:29.808Z,99189.94
2022-12-23T02:59:57.258Z,99187.13
2022-12-23T03:02:24.576Z,99182.50
2022-12-23T03:04:51.880Z,99180.91
2022-12-23T03:07:33.830Z,99172.34
2022-12-23T03:10:04.264Z,99185.00
2022-12-23T03:12:52.221Z,99183.75
2022-12-23T03:15:25.104Z,99172.22
2022-12-23T03:17:57.806Z,99174.16
2022-12-23T03:20:44.627Z,99172.69
2022-12-23T03:23:18.293Z,99170.78
2022-12-23T03:25:52.323Z,99173.56
2022-12-23T03:28:21.632Z,99176.84
2022-12-23T03:30:50.821Z,99176.31
2022-12-23T03:33:24.581Z,99175.78
2022-12-23T03:35:53.773Z,99168.66
2022-12-23T03:38:20.982Z,99170.91
2022-12-23T03:40:49.912Z,99171.53
2022-12-23T03:43:22.334Z,99168.16
2022-12-23T03:45:50.716Z,99164.94
2022-12-23T03:48:19.819Z,99176.88
2022-12-23T03:50:47.558Z,99174.06
2022-12-23T03:53:16.975Z,99172.75
2022-12-23T03:55:49.497Z,99169.66
2022-12-23T03:58:24.310Z,99174.69
2022-12-23T04:00:57.696Z,99171.34
2022-12-23T04:03:25.125Z,99163.28
2022-12-23T04:05:56.412Z,99162.06
2022-12-23T04:08:25.564Z,99156.41
2022-12-23T04:10:52.982Z,99154.41
2022-12-23T04:13:20.366Z,99148.88
2022-12-23T04:15:47.579Z,99150.53
2022-12-23T04:18:16.398Z,99149.88
2022-12-23T04:20:43.564Z,99150.16
2022-12-23T04:23:10.788Z,99158.62
2022-12-23T04:25:38.595Z,99154.13
2022-12-23T04:28:05.820Z,99165.38
2022-12-23T04:30:34.645Z,99159.19
2022-12-23T04:33:03.158Z,99155.37
2022-12-23T04:35:30.360Z,99158.09
2022-12-23T04:37:57.579Z,99167.03
2022-12-23T04:40:25.102Z,99174.69
2022-12-23T04:42:52.245Z,99176.25
2022-12-23T04:45:19.523Z,99172.78
2022-12-23T04:47:47.034Z,99168.97
2022-12-23T04:50:14.905Z,99169.19
2022-12-23T04:52:42.618Z,99180.53
2022-12-23T04:55:10.360Z,99184.09
2022-12-23T04:57:37.510Z,99175.75
2022-12-23T05:00:05.206Z,99164.59
2022-12-23T05:02:32.775Z,99156.06
2022-12-23T05:05:00.042Z,99150.53
2022-12-23T05:07:27.238Z,99153.38
2022-12-23T05:09:54.725Z,99159.88
2022-12-23T05:12:21.848Z,99155.16
2022-12-23T05:14:49.021Z,99155.75
2022-12-23T05:17:16.525Z,99152.34
2022-12-23T05:19:43.721Z,99152.09
2022-12-23T05:22:10.889Z,99154.53
2022-12-23T05:24:38.409Z,99159.81
2022-12-23T05:27:05.601Z,99163.94
2022-12-23T05:29:32.829Z,99150.06
2022-12-23T05:32:00.360Z,99140.94
2022-12-23T05:34:27.694Z,99141.94
2022-12-23T05:36:54.866Z,99157.53
2022-12-23T05:39:22.302Z,99168.63
2022-12-23T05:41:49.505Z,99181.50
2022-12-23T05:44:16.820Z,99186.00
2022-12-23T05:46:44.421Z,99183.44
2022-12-23T05:49:11.833Z,99182.12
2022-12-23T05:51:39.060Z,99183.66
2022-12-23T05:54:06.471Z,99178.97
2022-12-23T05:56:33.659Z,99167.31
2022-12-23T05:59:00.815Z,99168.63
2022-12-23T06:01:28.886Z,99162.47
2022-12-23T06:03:56.518Z,99152.72
2022-12-23T06:06:23.796Z,99164.50
2022-12-23T06:08:55.734Z,99167.88
2022-12-23T06:11:26.776Z,99162.53
2022-12-23T06:13:54.005Z,99165.47
2022-12-23T06:16:21.317Z,99169.47
2022-12-23T06:18:48.854Z,99167.88
2022-12-23T06:21:16.094Z,99166.94
2022-12-23T06:23:43.361Z,99161.44
2022-12-23T06:26:10.862Z,99159.28
2022-12-23T06:28:38.031Z,99157.66
2022-12-23T06:31:05.263Z,99142.31
2022-12-23T06:33:32.777Z,99138.75
2022-12-23T06:36:00.105Z,99150.78
2022-12-23T06:38:27.320Z,99150.66
2022-12-23T06:40:54.837Z,99155.00
2022-12-23T06:43:22.040Z,99168.50
2022-12-23T06:45:49.674Z,99176.03
2022-12-23T06:48:17.402Z,99183.53
2022-12-23T06:50:44.732Z,99187.53
2022-12-23T06:53:12.202Z,99206.38
2022-12-23T06:55:39.681Z,99209.56
2022-12-23T06:58:06.822Z,99207.72
2022-12-23T07:00:34.328Z,99216.94
2022-12-23T07:03:01.927Z,99222.78
2022-12-23T07:05:36.475Z,99228.63
2022-12-23T07:08:04.938Z,99236.44
2022-12-23T07:10:32.135Z,99255.00
2022-12-23T07:12:59.378Z,99232.38
2022-12-23T07:15:26.820Z,99243.41
2022-12-23T07:17:54.380Z,99232.13
2022-12-23T07:20:21.540Z,99213.69
2022-12-23T07:22:50.337Z,99208.13
2022-12-23T07:25:17.583Z,99196.13
2022-12-23T07:27:44.795Z,99194.91
2022-12-23T07:30:12.345Z,99202.13
2022-12-23T07:32:39.626Z,99202.97
2022-12-23T07:35:06.898Z,99202.59
2022-12-23T07:37:34.663Z,99206.38
2022-12-23T07:40:08.075Z,99198.25
2022-12-23T07:42:45.687Z,99191.56
2022-12-23T07:45:13.945Z,99198.34
2022-12-23T07:47:41.619Z,99194.13
2022-12-23T07:50:09.109Z,99192.56
2022-12-23T07:52:36.292Z,99185.31
2022-12-23T07:55:03.918Z,99185.63
2022-12-23T07:57:37.455Z,99184.50
2022-12-23T08:00:05.641Z,99175.91
2022-12-23T08:02:39.672Z,99173.50
2022-12-23T08:05:07.654Z,99172.03
2022-12-23T08:07:34.924Z,99180.16
2022-12-23T08:10:02.267Z,99180.53
2022-12-23T08:12:30.038Z,99183.22
2022-12-23T08:14:57.331Z,99184.66
2022-12-23T08:17:28.006Z,99171.66
2022-12-23T08:19:55.627Z,99172.63
2022-12-23T08:22:22.970Z,99171.22
2022-12-23T08:24:50.130Z,99161.81
2022-12-23T08:27:17.703Z,99159.59
2022-12-23T08:29:44.944Z,99163.81
2022-12-23T08:32:12.311Z,99172.63
2022-12-23T08:34:39.785Z,99167.53
2022-12-23T08:37:06.997Z,99180.06
2022-12-23T08:39:34.297Z,99170.97
2022-12-23T08:42:01.915Z,99170.56
2022-12-23T08:44:29.796Z,99155.63
2022-12-23T08:46:57.065Z,99154.19
2022-12-23T08:49:24.510Z,99145.59
2022-12-23T08:51:51.791Z,99146.53
2022-12-23T08:54:20.496Z,99154.87
2022-12-23T08:56:48.037Z,99156.31
2022-12-23T08:59:19.328Z,99149.44
2022-12-23T09:01:47.161Z,99144.47
2022-12-23T09:04:14.726Z,99143.25
2022-12-23T09:06:42.403Z,99129.25
2022-12-23T09:09:10.467Z,99131.50
2022-12-23T09:11:38.118Z,99132.94
2022-12-23T09:14:05.748Z,99141.41
2022-12-23T09:16:33.108Z,99148.47
2022-12-23T09:19:00.685Z,99152.00
2022-12-23T09:21:27.939Z,99159.12
2022-12-23T09:23:55.126Z,99158.16
2022-12-23T09:26:23.716Z,99163.75
2022-12-23T09:28:51.327Z,99163.06
2022-12-23T09:31:18.783Z,99157.25
2022-12-23T09:33:47.010Z,99157.81
2022-12-23T09:36:14.204Z,99154.44
2022-12-23T09:38:41.634Z,99141.84
2022-12-23T09:41:12.992Z,99140.00
2022-12-23T09:43:43.717Z,99137.16
2022-12-23T09:46:14.334Z,99127.34
2022-12-23T09:48:45.589Z,99119.53
2022-12-23T09:51:13.250Z,99122.44
2022-12-23T09:53:52.900Z,99147.00
2022-12-23T09:56:24.123Z,99141.41
2022-12-23T09:58:53.798Z,99140.34
2022-12-23T10:01:50.813Z,99135.84
2022-12-23T10:04:38.112Z,99134.50
2022-12-23T10:07:05.348Z,99127.09
2022-12-23T10:09:33.084Z,99110.94
2022-12-23T10:12:00.337Z,99109.16
2022-12-23T10:14:31.396Z,99107.09
2022-12-23T10:17:00.241Z,99111.34
2022-12-23T10:19:32.330Z,99114.06
2022-12-23T10:22:03.740Z,99106.44
2022-12-23T10:24:35.230Z,99106.00
2022-12-23T10:27:21.604Z,99099.16
2022-12-23T10:29:48.786Z,99090.47
2022-12-23T10:32:34.969Z,99092.22
2022-12-23T10:35:21.079Z,99080.34
2022-12-23T10:37:52.165Z,99077.09
2022-12-23T10:40:39.731Z,99075.09
2022-12-23T10:43:22.568Z,99079.44
2022-12-23T10:45:49.749Z,99072.31
2022-12-23T10:48:35.876Z,99048.97
2022-12-23T10:51:13.275Z,99055.63
2022-12-23T10:53:42.960Z,99042.53
2022-12-23T10:56:10.294Z,99059.31
2022-12-23T10:58:38.679Z,99060.91
2022-12-23T11:01:14.156Z,99067.38
2022-12-23T11:03:55.975Z,99066.81
2022-12-23T11:06:23.541Z,99066.84
2022-12-23T11:08:50.813Z,99072.06
2022-12-23T11:11:18.040Z,99068.66
2022-12-23T11:13:46.043Z,99062.81
2022-12-23T11:16:13.477Z,99056.59
2022-12-23T11:18:52.027Z,99055.75
2022-12-23T11:21:19.674Z,99052.91
2022-12-23T11:23:46.853Z,99042.91
2022-12-23T11:26:17.800Z,99048.50
2022-12-23T11:28:49.022Z,99038.25
2022-12-23T11:31:17.359Z,99031.75
2022-12-23T11:33:52.221Z,99023.66
2022-12-23T11:36:23.837Z,99031.78
2022-12-23T11:39:09.599Z,99037.69
2022-12-23T11:41:38.015Z,99050.28
2022-12-23T11:44:26.401Z,99053.91
2022-12-23T11:46:53.838Z,99063.91
2022-12-23T11:49:22.640Z,99061.44
2022-12-23T11:52:09.590Z,99058.38
2022-12-23T11:54:37.263Z,99057.84
2022-12-23T11:57:06.137Z,99047.56
2022-12-23T11:59:40.162Z,99046.50
2022-12-23T12:02:14.771Z,99047.09
2022-12-23T12:04:42.350Z,99049.06
2022-12-23T12:07:12.176Z,99051.03
2022-12-23T12:09:39.735Z,99058.25
2022-12-23T12:12:07.984Z,99048.94
2022-12-23T12:14:42.826Z,99047.16
2022-12-23T12:17:14.529Z,99058.50
2022-12-23T12:20:02.033Z,99060.25
2022-12-23T12:22:35.386Z,99059.72
2022-12-23T12:25:22.926Z,99058.53
2022-12-23T12:27:58.264Z,99069.28
2022-12-23T12:30:25.526Z,99076.22
2022-12-23T12:32:56.048Z,99078.22
2022-12-23T12:35:27.884Z,99079.47
2022-12-23T12:37:57.008Z,99071.31
2022-12-23T12:40:44.614Z,99076.13
2022-12-23T12:43:27.009Z,99066.03
2022-12-23T12:46:03.458Z,99056.63
2022-12-23T12:48:40.218Z,99059.38
2022-12-23T12:51:17.100Z,99070.09
2022-12-23T12:54:06.317Z,99073.31
2022-12-23T12:56:39.521Z,99064.22
2022-12-23T12:59:08.566Z,99071.00
2022-12-23T13:01:45.314Z,99068.59
2022-12-23T13:04:26.164Z,99060.78
2022-12-23T13:06:59.866Z,99069.34
2022-12-23T13:09:47.145Z,99065.56
2022-12-23T13:12:30.663Z,99058.25
2022-12-23T13:14:58.026Z,99070.84
2022-12-23T13:17:40.633Z,99063.19
2022-12-23T13:20:17.314Z,99067.84
2022-12-23T13:22:45.334Z,99067.88
2022-12-23T13:25:23.115Z,99073.66
2022-12-23T13:27:53.264Z,99070.56
2022-12-23T13:30:23.647Z,99064.84
2022-12-23T13:32:50.789Z,99067.94
2022-12-23T13:35:18.849Z,99064.03
2022-12-23T13:38:04.989Z,99069.31
2022-12-23T13:40:41.151Z,99071.63
2022-12-23T13:43:16.314Z,99061.03
2022-12-23T13:45:43.647Z,99076.84
2022-12-23T13:48:16.610Z,99073.03
2022-12-23T13:50:50.310Z,99074.00
2022-12-23T13:53:27.246Z,99070.22
2022-12-23T13:56:03.608Z,99066.41
2022-12-23T13:58:34.096Z,99071.75
2022-12-23T14:01:10.538Z,99065.22
2022-12-23T14:03:38.684Z,99076.84
2022-12-23T14:06:19.099Z,99077.69
2022-12-23T14:08:47.583Z,99079.09
2022-12-23T14:11:16.725Z,99081.50
2022-12-23T14:13:45.256Z,99083.62
2022-12-23T14:16:25.082Z,99076.25
2022-12-23T14:18:52.326Z,99079.53
2022-12-23T14:21:31.971Z,99073.88
2022-12-23T14:24:18.338Z,99078.81
2022-12-23T14:26:57.986Z,99079.81
2022-12-23T14:30:06.831Z,99084.75
2022-12-23T14:32:38.816Z,99076.97
2022-12-23T14:35:16.351Z,99079.53
2022-12-23T14:37:43.964Z,99081.34
2022-12-23T14:40:29.847Z,99083.75
2022-12-23T14:43:16.109Z,99089.81
2022-12-23T14:45:43.477Z,99095.91
2022-12-23T14:48:29.701Z,99086.69
2022-12-23T14:50:57.958Z,99090.56
2022-12-23T14:53:34.576Z,99082.34
2022-12-23T14:56:11.029Z,99087.72
2022-12-23T14:58:39.883Z,99088.00
2022-12-23T15:01:13.126Z,99086.69
2022-12-23T15:03:45.903Z,99100.13
2022-12-23T15:06:15.446Z,99102.13
2022-12-23T15:08:43.871Z,99100.56
2022-12-23T15:11:15.816Z,99100.13
2022-12-23T15:13:43.278Z,99104.25
2022-12-23T15:16:15.343Z,99113.41
2022-12-23T15:18:55.742Z,99113.69
2022-12-23T15:21:29.896Z,99121.47
2022-12-23T15:23:57.566Z,99117.37
2022-12-23T15:26:26.344Z,99127.53
2022-12-23T15:28:53.796Z,99121.28
2022-12-23T15:31:27.438Z,99125.84
2022-12-23T15:34:04.686Z,99118.50
2022-12-23T15:36:37.069Z,99120.19
2022-12-23T15:39:08.628Z,99124.16
2022-12-23T15:41:46.116Z,99125.00
2022-12-23T15:44:14.509Z,99117.50
2022-12-23T15:46:42.196Z,99116.09
2022-12-23T15:49:10.480Z,99102.81
2022-12-23T15:52:06.366Z,99100.13
2022-12-23T15:54:30.214Z,99109.63
2022-12-23T15:56:58.043Z,99112.28
2022-12-23T15:59:29.480Z,99112.13
2022-12-23T16:01:57.118Z,99107.75
2022-12-23T16:04:26.024Z,99101.97
2022-12-23T16:06:53.673Z,99106.03
2022-12-23T16:09:20.842Z,99110.44
2022-12-23T16:11:53.725Z,99103.22
2022-12-23T16:14:28.100Z,99105.34
2022-12-23T16:16:58.268Z,99102.66
2022-12-23T16:19:55.073Z,99101.63
2022-12-23T16:22:22.559Z,99101.22
2022-12-23T16:24:58.715Z,99098.84
2022-12-23T16:27:33.978Z,99099.78
2022-12-23T16:30:02.328Z,99107.63
2022-12-23T16:32:30.439Z,99105.88
2022-12-23T16:34:57.671Z,99100.44
2022-12-23T16:37:24.832Z,99102.28
2022-12-23T16:39:52.328Z,99099.47
2022-12-23T16:42:19.581Z,99098.62
2022-12-23T16:44:46.873Z,99102.47
2022-12-23T16:47:15.178Z,99102.13
2022-12-23T16:49:42.444Z,99093.00
2022-12-23T16:52:09.806Z,99088.91
2022-12-23T16:54:37.306Z,99084.25
2022-12-23T16:57:04.536Z,99079.16
2022-12-23T16:59:31.698Z,99069.56
2022-12-23T17:02:03.438Z,99078.31
2022-12-23T17:04:31.231Z,99079.31
2022-12-23T17:06:59.064Z,99081.56
2022-12-23T17:09:26.394Z,99086.22
2022-12-23T17:11:53.562Z,99093.84
2022-12-23T17:14:22.532Z,99088.22
2022-12-23T17:16:50.005Z,99079.16
2022-12-23T17:19:20.645Z,99079.69
2022-12-23T17:21:53.351Z,99076.75
2022-12-23T17:24:22.657Z,99075.22
2022-12-23T17:26:50.123Z,99083.59
2022-12-23T17:29:18.195Z,99079.69
2022-12-23T17:31:45.410Z,99095.66
2022-12-23T17:34:19.852Z,99095.09
2022-12-23T17:36:50.320Z,99096.06
2022-12-23T17:39:18.867Z,99093.37
2022-12-23T17:41:46.122Z,99090.62
2022-12-23T17:44:14.397Z,99093.63
2022-12-23T17:46:41.796Z,99100.41
2022-12-23T17:49:09.024Z,99084.94
2022-12-23T17:51:36.583Z,99081.00
2022-12-23T17:54:05.761Z,99076.88
2022-12-23T17:56:33.064Z,99084.16
2022-12-23T17:59:00.559Z,99089.59
2022-12-23T18:01:29.970Z,99089.53
2022-12-23T18:03:58.020Z,99071.47
2022-12-23T18:06:25.720Z,99073.00
2022-12-23T18:08:52.953Z,99070.94
2022-12-23T18:11:29.289Z,99063.97
2022-12-23T18:13:56.433Z,99060.59
2022-12-23T18:16:24.033Z,99067.34
2022-12-23T18:18:51.927Z,99069.69
2022-12-23T18:21:25.625Z,99081.78
2022-12-23T18:23:57.781Z,99073.47
2022-12-23T18:26:25.042Z,99084.81
2022-12-23T18:28:54.337Z,99090.97
2022-12-23T18:31:22.871Z,99088.69
2022-12-23T18:33:50.897Z,99077.59
2022-12-23T18:36:25.519Z,99079.28
2022-12-23T18:38:53.018Z,99088.63
2022-12-23T18:41:21.137Z,99083.88
2022-12-23T18:43:48.430Z,99075.66
2022-12-23T18:46:15.699Z,99073.78
2022-12-23T18:48:43.277Z,99067.28
2022-12-23T18:51:12.908Z,99072.00
2022-12-23T18:53:40.184Z,99064.56
2022-12-23T18:56:09.899Z,99072.78
2022-12-23T18:58:37.297Z,99088.03
2022-12-23T19:01:04.616Z,99095.09
2022-12-23T19:03:32.171Z,99094.50
2022-12-23T19:06:06.633Z,99089.53
2022-12-23T19:08:35.124Z,99093.16
2022-12-23T19:11:02.434Z,99091.94
2022-12-23T19:13:29.895Z,99090.91
2022-12-23T19:15:57.368Z,99091.63
2022-12-23T19:18:24.661Z,99099.88
2022-12-23T19:20:51.913Z,99102.91
2022-12-23T19:23:19.419Z,99108.28
2022-12-23T19:25:54.561Z,99112.06
2022-12-23T19:28:23.919Z,99112.13
2022-12-23T19:30:51.212Z,99107.84
2022-12-23T19:33:18.546Z,99114.16
2022-12-23T19:35:46.108Z,99119.03
2022-12-23T19:38:13.354Z,99111.75
2022-12-23T19:40:40.572Z,99111.06
2022-12-23T19:43:08.207Z,99117.22
2022-12-23T19:45:35.401Z,99111.03
2022-12-23T19:48:02.573Z,99115.72
2022-12-23T19:50:30.094Z,99115.31
2022-12-23T19:52:57.510Z,99116.94
2022-12-23T19:55:24.935Z,99119.88
2022-12-23T19:57:52.677Z,99132.22
2022-12-23T20:00:19.889Z,99135.78
2022-12-23T20:02:47.524Z,99142.31
2022-12-23T20:05:17.358Z,99149.19
2022-12-23T20:07:44.690Z,99146.22
2022-12-23T20:10:12.226Z,99143.12
2022-12-23T20:12:39.432Z,99133.44
2022-12-23T20:15:07.012Z,99129.72
2022-12-23T20:17:34.464Z,99127.34
2022-12-23T20:20:01.846Z,99128.69
2022-12-23T20:22:29.024Z,99117.66
2022-12-23T20:24:57.124Z,99115.03
2022-12-23T20:27:28.163Z,99114.97
2022-12-23T20:29:55.591Z,99114.97
2022-12-23T20:32:23.066Z,99107.38
2022-12-23T20:34:50.371Z,99102.78
2022-12-23T20:37:18.045Z,99105.34
2022-12-23T20:39:45.927Z,99097.56
2022-12-23T20:42:13.241Z,99101.16
2022-12-23T20:44:40.493Z,99088.78
2022-12-23T20:47:07.996Z,99091.59
2022-12-23T20:49:35.305Z,99093.63
2022-12-23T20:52:02.863Z,99092.97
2022-12-23T20:54:33.649Z,99090.81
2022-12-23T20:57:01.741Z,99077.81
2022-12-23T20:59:29.194Z,99071.91
2022-12-23T21:01:59.087Z,99072.69
2022-12-23T21:04:26.790Z,99081.34
2022-12-23T21:06:54.039Z,99077.69
2022-12-23T21:09:21.499Z,99079.50
2022-12-23T21:11:49.683Z,99070.34
2022-12-23T21:14:17.093Z,99077.41
2022-12-23T21:16:44.861Z,99082.41
2022-12-23T21:19:16.401Z,99072.31
2022-12-23T21:21:43.650Z,99066.97
2022-12-23T21:24:11.253Z,99065.31
2022-12-23T21:26:38.635Z,99056.44
2022-12-23T21:29:06.744Z,99049.81
2022-12-23T21:31:35.373Z,99057.41
2022-12-23T21:34:02.801Z,99060.81
2022-12-23T21:36:31.177Z,99056.72
2022-12-23T21:38:59.096Z,99054.44
2022-12-23T21:41:27.643Z,99052.25
2022-12-23T21:43:55.946Z,99044.53
2022-12-23T21:46:23.606Z,99042.81
2022-12-23T21:48:51.017Z,99037.84
2022-12-23T21:51:22.822Z,99048.31
2022-12-23T21:53:51.323Z,99072.72
2022-12-23T21:56:24.191Z,99071.41
2022-12-23T21:58:55.921Z,99057.91
2022-12-23T22:01:23.595Z,99055.41
2022-12-23T22:03:52.114Z,99046.53
2022-12-23T22:06:20.525Z,99056.03
2022-12-23T22:08:48.066Z,99034.56
2022-12-23T22:11:16.992Z,99025.34
2022-12-23T22:13:44.340Z,99013.13
2022-12-23T22:16:12.569Z,99011.66
2022-12-23T22:18:40.384Z,98991.81
2022-12-23T22:21:09.035Z,98982.44
2022-12-23T22:23:36.831Z,98972.16
2022-12-23T22:26:04.569Z,98968.59
2022-12-23T22:28:32.316Z,98979.25
2022-12-23T22:31:06.319Z,98988.16
2022-12-23T22:33:34.064Z,98985.28
2022-12-23T22:36:01.360Z,98980.31
2022-12-23T22:38:28.686Z,98982.69
2022-12-23T22:40:56.198Z,98971.44
2022-12-23T22:43:23.432Z,98966.09
2022-12-23T22:45:57.161Z,98969.25
2022-12-23T22:48:25.840Z,98962.03
2022-12-23T22:51:00.679Z,98959.63
2022-12-23T22:53:30.010Z,98958.09
2022-12-23T22:56:01.024Z,98955.28
2022-12-23T22:58:29.148Z,98958.31
2022-12-23T23:00:56.495Z,98955.22
2022-12-23T23:03:25.590Z,98959.16
2022-12-23T23:06:03.557Z,98955.66
2022-12-23T23:08:31.098Z,98956.63
2022-12-23T23:10:59.303Z,98964.06
2022-12-23T23:13:27.589Z,98964.81
2022-12-23T23:15:56.000Z,98970.00
2022-12-23T23:18:23.918Z,98966.66
2022-12-23T23:20:51.061Z,98961.31
2022-12-23T23:23:18.236Z,98965.37
2022-12-23T23:25:45.892Z,98956.87
2022-12-23T23:28:13.422Z,98973.94
2022-12-23T23:30:40.735Z,98960.00
2022-12-23T23:33:08.407Z,98966.63
2022-12-23T23:35:35.612Z,98955.84
2022-12-23T23:38:02.800Z,98952.69
2022-12-23T23:40:30.261Z,98932.50
2022-12-23T23:42:57.368Z,98927.44
2022-12-23T23:45:24.621Z,98925.63
2022-12-23T23:47:52.112Z,98909.56
2022-12-23T23:50:19.404Z,98909.44
2022-12-23T23:52:46.581Z,98921.81
2022-12-23T23:55:14.041Z,98926.47
2022-12-23T23:57:41.245Z,98928.97
